Trail des Gueules Noires 17/12/2016 - 53 Km
Place Nom Prénom Temps Vitesse Allure Place. Cat. Cat.
1 VAN LOKEREN STIJN 203 4:55:16 10,8 5:34 1 S
2 LEJEUNE SYLVAIN 236 5:02:57 10,5 5:42 2 S
3 BENARD VALENTIN 12 5:02:57 10,5 5:42 1 EG
4 LOQUET THOMAS 121 5:21:12 9,9 6:03 3 S
5 DAWIRS OLIVIER 35 5:24:55 9,8 6:07 4 S
6 CAPELLE CHRISTIAN 25 5:28:10 9,7 6:11 1 V1
7 LECLERCQ PIERRE 113 5:30:13 9,6 6:13 5 S
8 AOUICHA ANTOINE 5 5:33:02 9,5 6:17 6 S
9 SCHACHT WIM 173 5:41:28 9,3 6:26 2 V1
10 DEBRABANDERE LANDER 42 5:42:21 9,3 6:27 3 V1
11 DSANE FN 61 5:42:34 9,3 6:27 7 S
12 RUNEMALM DANIEL 169 5:44:05 9,2 6:29 8 S
13 LEDUC ROBIN 224 5:47:02 9,2 6:32 4 V1
14 HOUWELING FRANK 103 5:50:35 9,1 6:36 5 V1
15 LEERG OLIVIER 114 5:53:40 9,0 6:40 6 V1
16 GIVRON REGIS 240 5:56:10 8,9 6:43 9 S
17 DELFORGE CHRISTOPHE 47 5:56:10 8,9 6:43 7 V1
18 MARCHAND STÉPHANE 126 5:56:40 8,9 6:43 8 V1
19 MARTIN ANTOINE 128 5:56:41 8,9 6:43 10 S
20 SCHMETZ OLIVIER 176 5:56:44 8,9 6:43 9 V1
21 GODEFROID RENAUD 81 5:57:11 8,9 6:44 11 S
22 HULTBERG JOHAN 104 5:57:43 8,9 6:44 12 S
23 HENRION MICHEL 96 5:58:02 8,9 6:45 10 V1
24 MALHERBE XAVIER 123 5:58:02 8,9 6:45 13 S
25 WOZNA MONIKA 217 5:59:25 8,8 6:46 1 A1
26 PINCKAERS ROBERT 161 5:59:28 8,8 6:46 1 V2
27 MUNAUT JÉRÉMY 142 5:59:39 8,8 6:47 14 S
28 VAN HEUSDEN OLIVIER 201 6:00:16 8,8 6:47 11 V1
29 JOB STÉPHANE 108 6:04:18 8,7 6:52 12 V1
30 VAN HAUTE CHRISTOPHE 200 6:08:45 8,6 6:57 13 V1
31 BERGMAN EIK 223 6:10:37 8,6 6:59 1 V4
32 MURILLO HENRY 143 6:14:51 8,5 7:04 15 S
33 DELPIERRE JEAN-LUC 48 6:15:08 8,5 7:04 2 V2
34 ANDRIES MICHAEL 4 6:15:26 8,5 7:05 16 S
35 NOVILLE MAURICE 151 6:16:00 8,5 7:05 14 V1
36 DEMETRIOU TRYFON 49 6:17:21 8,4 7:07 17 S
37 REUL BÉNÉDICTE 165 6:17:31 8,4 7:07 2 A1
38 FERGEN JOCHEN 233 6:23:06 8,3 7:13 15 V1
39 LAUE FLORIS 231 6:23:06 8,3 7:13 18 S
40 HUNOLD MAXIMILIAN 105 6:23:14 8,3 7:13 19 S
41 ROCK NICOLAS 258 6:28:28 8,2 7:19 20 S
42 SCHOOFS WILLIAM 177 6:30:28 8,1 7:22 16 V1
43 SAMAIN ANTHONY 171 6:32:34 8,1 7:24 17 V1
44 JOASSART MARTIN 156 6:32:40 8,1 7:24 21 S
45 ZANIER LAURENT 232 6:33:06 8,1 7:25 18 V1
46 SCAILLET VINCENT 172 6:33:35 8,1 7:25 19 V1
47 BECKERS VINCENT 10 6:33:35 8,1 7:25 3 V2
48 VANGHELUWE DIMITRI 238 6:35:43 8,0 7:27 22 S
49 SIMONS JÖRG 185 6:35:43 8,0 7:27 20 V1
50 SERVAIS ANTHONY 180 6:35:58 8,0 7:28 23 S
51 SERVAIS ARNAUD 181 6:35:58 8,0 7:28 24 S
52 WANSART NICOLAS 213 6:36:07 8,0 7:28 25 S
53 NEMEGAIRE LAURENT 148 6:36:33 8,0 7:28 21 V1
54 CHERCHARI AMAR 254 6:37:08 8,0 7:29 1 V3
55 DE BIE FONS 38 6:38:11 8,0 7:30 4 V2
56 DADOUMONT BENOÎT 33 6:39:18 8,0 7:32 5 V2
57 FRINGS ENLE 234 6:40:01 7,9 7:32 6 V2
58 GABORIEAU STEVEN 71 6:44:57 7,9 7:38 26 S
59 BEULEN BRUNO 15 6:45:41 7,8 7:39 27 S
60 GREGOIRE ETIENNE 85 6:47:25 7,8 7:41 22 V1
61 HENSEN STÉPHANE 98 6:47:25 7,8 7:41 23 V1
62 STASSART VINCENT 189 6:47:54 7,8 7:41 24 V1
63 HOSSELET KEVIN 102 6:47:55 7,8 7:41 28 S
64 DECLERCQ STEVEN 44 6:48:09 7,8 7:42 29 S
65 POSTELMANS JURGEN 164 6:48:18 7,8 7:42 25 V1
66 DUTZ OLIVIER 64 6:48:53 7,8 7:42 7 V2
67 UREEL JOHAN 235 6:49:06 7,8 7:43 8 V2
68 HEYNS CHRISTOPHE 100 6:49:15 7,8 7:43 26 V1
69 OFFERMANN NATHALIE 152 6:49:28 7,8 7:43 3 A1
70 WERTZ LUC 214 6:49:42 7,8 7:43 9 V2
71 ERNST CHRISTOPHE 65 6:49:42 7,8 7:43 27 V1
72 D'AMORE LAURENT 34 6:49:49 7,8 7:43 30 S
73 GUSTIN STEVE 87 6:50:16 7,8 7:44 31 S
74 BERTRAND VALÉRY 14 6:53:43 7,7 7:48 32 S
75 PINCKAERS CHRISTOPHE 160 6:55:11 7,7 7:50 33 S
76 MEEUSSEN KOEN 133 6:56:58 7,6 7:52 34 S
77 DODEMONT VINCENT 59 6:57:17 7,6 7:52 28 V1
78 BIASINO FABRICE 16 6:58:20 7,6 7:53 35 S
79 LEGENDRE NINON 115 6:58:36 7,6 7:53 4 A1
80 BEGUIN OLIVIER 11 6:59:07 7,6 7:54 29 V1
81 GAZON CINDY 74 6:59:23 7,6 7:54 5 A1
82 GORTS HANS 84 7:01:45 7,5 7:57 36 S
83 BUET THOMAS 23 7:03:06 7,5 7:58 37 S
84 DEWEZ MICHAEL 53 7:03:39 7,5 7:59 38 S
85 HAPPART GRÉGORY 91 7:04:16 7,5 8:00 30 V1
86 GALVEZ GAUTHIER 72 7:07:02 7,4 8:03 39 S
87 DIRKX WIM 58 7:08:09 7,4 8:04 HSC
88 MESSELIS BART 135 7:08:09 7,4 8:04 HSC
89 HECQ OLIVIER 92 7:09:51 7,4 8:06 10 V2
90 BERNAERS INGMAR 13 7:10:16 7,4 8:07 40 S
91 BONCHOUX JEAN-THOMAS 20 7:11:54 7,4 8:08 31 V1
92 SIMONSE EVA 186 7:12:14 7,4 8:09 1 D
93 FRANCO YOANN 70 7:15:04 7,3 8:12 41 S
94 TIMMERMANS JEAN-PHILIPPE 192 7:15:46 7,3 8:13 42 S
95 POLET BRIEUC 163 7:15:46 7,3 8:13 43 S
96 SIMONART THIBAUT 184 7:15:46 7,3 8:13 HSC
97 MAGYAR PETER 122 7:16:17 7,3 8:13 32 V1
98 SCHÜLER NADIA 178 7:16:27 7,3 8:14 2 D
99 THIERRY CHRISTOPHE 227 7:17:17 7,3 8:15 33 V1
100 SOPHYS ROMAIN 226 7:17:17 7,3 8:15 44 S
101 THIERRY PHILIPPE 229 7:17:17 7,3 8:15 34 V1
102 BRIDGEFORTH ALEX 22 7:19:38 7,2 8:17 45 S
103 GHYSEN ANDRÉ 80 7:19:47 7,2 8:17 HSC
104 DELCOURT FLORENCE 46 7:20:28 7,2 8:18 1 A2
105 OLIVIER LOÏC 154 7:20:44 7,2 8:18 46 S
106 GOOSSE CHRISTOPHE 83 7:21:45 7,2 8:20 47 S
107 DOBBELAERE MATTHIAS 230 7:23:23 7,2 8:21 48 S
108 CABRERA ALFREDO 24 7:23:23 7,2 8:21 49 S
109 DIEFFENBACH MARTIAL 56 7:24:08 7,2 8:22 35 V1
110 HOLVOET JON 101 7:24:08 7,2 8:22 50 S
111 LELEUX JULIEN 116 7:24:21 7,2 8:23 51 S
112 BINON FRÉDÉRIQUE 17 7:28:12 7,1 8:27 6 A1
113 BIERMANS PHILIPPE 242 7:28:12 7,1 8:27 36 V1
114 DAWIRS ROBERT 36 7:28:12 7,1 8:27 37 V1
115 RAUSIN BERNARD 245 7:28:44 7,1 8:28 11 V2
116 DE STREEL GÉRAUD 41 7:29:53 7,1 8:29 52 S
117 CHICHEPORTICHE YANN 243 7:30:17 7,1 8:29 53 S
118 BECK JACQUES 9 7:30:46 7,1 8:30 12 V2
119 CLAASSEN MARC 29 7:32:38 7,0 8:32 38 V1
120 DECROIX OLIVIER 45 7:32:39 7,0 8:32 13 V2
121 MERCIER DOMINIQUE 134 7:32:39 7,0 8:32 39 V1
122 NAVEAU GEORGES-ERIC 145 7:36:11 7,0 8:36 HSC
123 DUCULOT JEAN-MICHEL 62 7:40:00 6,9 8:40 40 V1
124 SNEESSENS ALAIN 187 7:40:00 6,9 8:40 41 V1
125 NICOLAS CÉLINE 149 7:40:55 6,9 8:41 7 A1
126 LAUMONT NOEMIE 256 7:42:13 6,9 8:43 8 A1
127 BLOCK THIERRY 19 7:42:24 6,9 8:43 HSC
128 SWAGER-TELKENES PETER 190 7:42:24 6,9 8:43 HSC
129 VAN HEYNINGEN ROGIER 202 7:43:17 6,9 8:44 42 V1
130 SIENOT RAIMOND 182 7:43:17 6,9 8:44 HSC
131 VAN BROEKHOVEN ERWIN 194 7:43:53 6,9 8:45 54 S
132 MALOIR PHILIPPE 124 7:43:53 6,9 8:45 14 V2
133 MALOIR PIERRE 125 7:43:53 6,9 8:45 15 V2
134 BOSMANS ERIC 21 7:43:53 6,9 8:45 43 V1
135 DOGNE JEAN 260 7:45:13 6,8 8:46 44 V1
136 WOLTECHE HERVÉ 216 7:45:13 6,8 8:46 55 S
137 NAEGELS CHRISTINE 144 7:47:08 6,8 8:48 2 A2
138 HENNEUSE JUDITH 95 7:48:27 6,8 8:50 FSC
139 SNOEKS JOS 188 7:49:58 6,8 8:52 16 V2
140 DUMONT DE CHASSART WAUTHIER 261 7:52:38 6,7 8:55 17 V2
141 JENARD GRÉGORY 107 7:57:38 6,7 9:00 56 S
142 EVRARD YVES 66 7:59:06 6,6 9:02 45 V1
143 AMMENDOLA ANTONIO 244 8:01:36 6,6 9:05 57 S
144 GERARD JÉRÉMY 76 8:01:36 6,6 9:05 58 S
145 ROMAIN XAVIER 168 8:03:25 6,6 9:07 46 V1
146 HACKING WIM 88 8:03:25 6,6 9:07 18 V2
147 LARUE FABRICE 111 8:07:50 6,5 9:12 47 V1
148 DESADELEER JEAN-FRANÇOIS 51 8:07:51 6,5 9:12 48 V1
149 SIMON BABOU 183 8:08:37 6,5 9:13 1 A3
150 LALLEMANT STEPHANIE 237 8:08:37 6,5 9:13 9 A1
151 DUMEZ STÉPHANE 63 8:09:00 6,5 9:13 49 V1
152 DINON DOMINIQUE 57 8:13:11 6,4 9:18 19 V2
153 FONTAINE CINDY 68 8:13:50 6,4 9:19 3 D
154 DANDOIS YANNICK 255 8:13:51 6,4 9:19 HSC
155 VINDERS JOS 207 8:14:52 6,4 9:20 20 V2
156 HEUSSCHEN DOMINIQUE-YVES 99 8:15:08 6,4 9:20 21 V2
157 CULOT LIONEL 31 8:16:03 6,4 9:21 59 S
158 MONNEAUX QUENTIN 139 8:16:03 6,4 9:21 60 S
159 SCHEUTJENS PETER 175 8:16:10 6,4 9:21 22 V2
160 SCHENKELAARS DICK 174 8:16:10 6,4 9:21 23 V2
161 MATOS DIEGO 132 8:20:32 6,4 9:26 61 S
162 VAN DEN EEDE NOËLLE 198 8:24:56 6,3 9:31 3 A2
163 VLOEMANS VINCENT 208 8:25:03 6,3 9:31 24 V2
164 KLASING JOERG 110 8:26:43 6,3 9:33 HSC
165 PAQUET JONATHAN 155 8:26:43 6,3 9:33 62 S
166 VANDER PHILIPPE 205 8:28:07 6,3 9:35 2 V3
167 LEONE PASCAL 119 8:28:44 6,3 9:35 63 S
168 BINOT RAPHAËL 18 8:38:44 6,1 9:47 25 V2
169 DIAS DAAN 54 8:38:44 6,1 9:47 50 V1
170 MIYAMOTO NAOKI 138 8:38:44 6,1 9:47 HSC
171 GEYSEN BRAM 78 8:42:52 6,1 9:51 51 V1
172 JACQUES STEFAN 106 8:42:52 6,1 9:51 52 V1
173 MARLIER DAVID 127 8:56:23 5,9 10:07 26 V2
174 GROOS DOROTHÉA 86 8:57:35 5,9 10:08 FSC
175 DREISER MIRKO 60 8:57:35 5,9 10:08 53 V1
176 GEELEN BÉATRICE 75 8:58:51 5,9 10:10 10 A1
177 MONSEZ CHRISTINE 140 8:58:51 5,9 10:10 11 A1
178 VAN DEN BROECK MAURICE 197 9:09:04 5,8 10:21 3 V3
179 FETTWEIS THIERRY 67 9:23:23 5,6 10:37 27 V2
180 ROHRMAN BERND 167 9:25:16 5,6 10:39 28 V2
181 CAVALEIRO PEDRO 27 9:25:16 5,6 10:39 54 V1
182 VERLINDEN JEF 206 9:31:46 5,6 10:47 4 V3
183 NELSEN FERDINAND 147 9:31:46 5,6 10:47 5 V3
184 FRANCK SILVESTER 225 9:31:46 5,6 10:47 29 V2
185 MEUNIER CÉDRIC 136 9:35:42 5,5 10:51 64 S
186 PIRONNET ERIC 162 9:36:09 5,5 10:52 30 V2
187 VAN DAMME STEFAN 195 9:36:31 5,5 10:52 65 S
188 SELLEKAERTS CHANTAL 179 9:52:10 5,4 11:10 4 A2
189 VRANCKEN JOS 210 10:40:00 5,0 12:04 6 V3
190 DE MEULEMEESTER DOMINIEK 40 10:54:00 4,9 12:20 55 V1
191 CATTOOR KATRIEN 26 10:54:00 4,9 12:20 12 A1
192 HENROTTIN PIERRE 97 11:27:00 4,6 12:57 31 V2